createdAt,value
2022-12-27T00:00:10.138Z,9.60
2022-12-27T00:03:04.305Z,10.50
2022-12-27T00:05:32.662Z,10.00
2022-12-27T00:08:00.759Z,9.30
2022-12-27T00:10:28.814Z,8.80
2022-12-27T00:12:57.004Z,9.20
2022-12-27T00:15:25.134Z,11.40
2022-12-27T00:17:53.350Z,11.30
2022-12-27T00:20:21.535Z,9.30
2022-12-27T00:22:49.689Z,10.70
2022-12-27T00:25:18.207Z,10.50
2022-12-27T00:27:46.476Z,8.60
2022-12-27T00:30:15.807Z,7.00
2022-12-27T00:32:43.966Z,7.40
2022-12-27T00:35:12.672Z,8.10
2022-12-27T00:37:40.793Z,8.50
2022-12-27T00:40:09.941Z,7.30
2022-12-27T00:42:38.234Z,7.20
2022-12-27T00:45:07.260Z,7.00
2022-12-27T00:47:35.355Z,6.30
2022-12-27T00:50:04.706Z,6.70
2022-12-27T00:52:32.801Z,5.70
2022-12-27T00:55:00.937Z,6.40
2022-12-27T00:57:29.145Z,6.20
2022-12-27T00:59:57.259Z,6.30
2022-12-27T01:02:26.227Z,6.10
2022-12-27T01:04:55.176Z,7.90
2022-12-27T01:07:24.384Z,5.60
2022-12-27T01:09:52.546Z,5.00
2022-12-27T01:12:20.849Z,5.70
2022-12-27T01:14:48.898Z,5.90
2022-12-27T01:17:18.155Z,5.00
2022-12-27T01:19:46.799Z,4.60
2022-12-27T01:22:14.877Z,4.80
2022-12-27T01:24:43.341Z,5.10
2022-12-27T01:27:11.588Z,4.80
2022-12-27T01:29:39.706Z,4.70
2022-12-27T01:32:08.647Z,4.00
2022-12-27T01:34:37.236Z,5.10
2022-12-27T01:37:05.450Z,3.90
2022-12-27T01:39:33.580Z,4.00
2022-12-27T01:42:20.438Z,4.50
2022-12-27T01:44:58.135Z,4.80
2022-12-27T01:47:49.937Z,5.50
2022-12-27T01:50:34.351Z,4.20
2022-12-27T01:53:07.273Z,4.70
2022-12-27T01:55:49.493Z,4.90
2022-12-27T01:58:39.802Z,4.20
2022-12-27T02:01:13.478Z,4.70
2022-12-27T02:03:56.065Z,4.60
2022-12-27T02:06:26.873Z,3.90
2022-12-27T02:09:07.400Z,3.60
2022-12-27T02:11:52.487Z,4.20
2022-12-27T02:17:06.598Z,4.70
2022-12-27T02:19:40.922Z,3.20
2022-12-27T02:22:30.993Z,3.50
2022-12-27T02:25:11.277Z,3.70
2022-12-27T02:28:24.876Z,7.10
2022-12-27T02:30:59.946Z,5.40
2022-12-27T02:33:32.908Z,4.60
2022-12-27T02:36:05.021Z,3.90
2022-12-27T02:38:38.451Z,4.70
2022-12-27T02:41:28.473Z,4.30
2022-12-27T02:44:17.109Z,6.00
2022-12-27T02:47:08.839Z,4.80
2022-12-27T02:49:58.216Z,6.00
2022-12-27T02:53:04.327Z,5.50
2022-12-27T02:55:41.308Z,6.00
2022-12-27T02:58:46.948Z,5.80
2022-12-27T03:01:53.411Z,5.80
2022-12-27T03:04:32.108Z,5.40
2022-12-27T03:07:06.518Z,3.70
2022-12-27T03:10:13.796Z,4.30
2022-12-27T03:13:26.754Z,3.90
2022-12-27T03:16:08.939Z,3.20
2022-12-27T03:18:43.056Z,3.00
2022-12-27T03:21:37.800Z,3.00
2022-12-27T03:24:26.266Z,3.70
2022-12-27T03:26:56.081Z,4.80
2022-12-27T03:29:44.456Z,5.10
2022-12-27T03:32:34.344Z,4.20
2022-12-27T03:35:19.705Z,4.00
2022-12-27T03:38:04.109Z,4.40
2022-12-27T03:41:03.509Z,4.20
2022-12-27T03:43:32.921Z,4.70
2022-12-27T03:46:34.021Z,5.40
2022-12-27T03:49:27.629Z,5.20
2022-12-27T03:52:17.548Z,5.80
2022-12-27T03:54:50.202Z,6.50
2022-12-27T03:57:21.756Z,4.90
2022-12-27T03:59:50.320Z,5.00
2022-12-27T04:02:19.180Z,4.90
2022-12-27T04:04:48.587Z,5.30
2022-12-27T04:07:16.877Z,5.40
2022-12-27T04:10:03.727Z,5.40
2022-12-27T04:12:50.637Z,3.70
2022-12-27T04:15:37.773Z,3.70
2022-12-27T04:18:24.694Z,4.10
2022-12-27T04:21:11.707Z,5.10
2022-12-27T04:23:58.427Z,3.80
2022-12-27T04:26:45.215Z,3.70
2022-12-27T04:29:32.029Z,3.80
2022-12-27T04:32:19.019Z,3.90
2022-12-27T04:34:47.339Z,4.60
2022-12-27T04:37:20.029Z,5.70
2022-12-27T04:40:11.280Z,4.00
2022-12-27T04:42:58.184Z,4.80
2022-12-27T04:45:44.831Z,2.40
2022-12-27T04:48:33.731Z,3.20
2022-12-27T04:51:20.908Z,2.70
2022-12-27T04:54:07.721Z,2.50
2022-12-27T04:56:35.931Z,3.40
2022-12-27T04:59:22.733Z,5.00
2022-12-27T05:02:03.787Z,3.30
2022-12-27T05:04:34.732Z,2.60
2022-12-27T05:07:24.877Z,4.20
2022-12-27T05:10:12.414Z,3.70
2022-12-27T05:12:59.176Z,3.50
2022-12-27T05:15:27.372Z,4.90
2022-12-27T05:17:57.597Z,3.60
2022-12-27T05:20:25.699Z,4.40
2022-12-27T05:23:12.955Z,3.70
2022-12-27T05:25:45.963Z,4.00
2022-12-27T05:28:14.214Z,4.10
2022-12-27T05:30:44.659Z,3.80
2022-12-27T05:33:13.188Z,8.30
2022-12-27T05:35:41.607Z,4.80
2022-12-27T05:38:10.022Z,3.60
2022-12-27T05:40:38.178Z,4.40
2022-12-27T05:43:06.308Z,6.90
2022-12-27T05:45:34.742Z,4.10
2022-12-27T05:48:02.965Z,4.10
2022-12-27T05:50:31.154Z,5.00
2022-12-27T05:53:11.894Z,4.30
2022-12-27T05:55:41.059Z,2.60
2022-12-27T05:58:09.235Z,1.40
2022-12-27T06:00:37.300Z,1.20
2022-12-27T06:03:05.752Z,1.00
2022-12-27T06:05:33.942Z,0.90
2022-12-27T06:08:02.072Z,0.80
2022-12-27T06:10:30.541Z,1.80
2022-12-27T06:13:02.353Z,2.50
2022-12-27T06:15:31.162Z,1.00
2022-12-27T06:18:00.609Z,2.20
2022-12-27T06:20:29.115Z,1.20
2022-12-27T06:23:00.183Z,2.70
2022-12-27T06:25:28.383Z,1.20
2022-12-27T06:27:56.629Z,2.40
2022-12-27T06:30:24.915Z,1.10
2022-12-27T06:32:53.144Z,1.40
2022-12-27T06:35:21.650Z,3.50
2022-12-27T06:37:50.575Z,5.00
2022-12-27T06:40:20.982Z,2.70
2022-12-27T06:42:49.184Z,2.70
2022-12-27T06:45:17.545Z,1.40
2022-12-27T06:47:45.873Z,1.70
2022-12-27T06:50:14.123Z,2.60
2022-12-27T06:52:42.490Z,1.90
2022-12-27T06:55:10.557Z,3.00
2022-12-27T06:57:38.843Z,2.80
2022-12-27T07:00:08.122Z,3.50
2022-12-27T07:02:38.313Z,2.80
2022-12-27T07:05:07.429Z,8.00
2022-12-27T07:07:35.638Z,5.50
2022-12-27T07:10:04.145Z,5.80
2022-12-27T07:12:36.637Z,6.60
2022-12-27T07:15:08.363Z,5.90
2022-12-27T07:17:36.996Z,7.20
2022-12-27T07:20:06.654Z,6.20
2022-12-27T07:22:35.126Z,7.00
2022-12-27T07:25:03.455Z,5.60
2022-12-27T07:27:35.625Z,4.90
2022-12-27T07:30:05.286Z,8.30
2022-12-27T07:32:33.700Z,5.70
2022-12-27T07:35:02.615Z,4.80
2022-12-27T07:37:30.914Z,4.00
2022-12-27T07:39:59.154Z,6.90
2022-12-27T07:42:28.817Z,10.20
2022-12-27T07:44:57.142Z,5.70
2022-12-27T07:47:25.367Z,10.00
2022-12-27T07:49:53.631Z,12.60
2022-12-27T07:52:21.827Z,11.60
2022-12-27T07:54:49.958Z,11.10
2022-12-27T07:57:18.160Z,10.30
2022-12-27T07:59:46.347Z,9.90
2022-12-27T08:02:16.705Z,14.60
2022-12-27T08:04:45.934Z,20.10
2022-12-27T08:07:16.654Z,8.70
2022-12-27T08:09:47.258Z,15.20
2022-12-27T08:12:15.737Z,9.50
2022-12-27T08:14:45.193Z,13.60
2022-12-27T08:17:22.744Z,12.00
2022-12-27T08:19:52.045Z,9.70
2022-12-27T08:22:22.082Z,8.90
2022-12-27T08:24:50.343Z,10.60
2022-12-27T08:27:23.526Z,7.20
2022-12-27T08:29:51.715Z,7.80
2022-12-27T08:32:20.455Z,8.80
2022-12-27T08:34:48.881Z,12.90
2022-12-27T08:37:17.219Z,7.90
2022-12-27T08:39:45.496Z,6.60
2022-12-27T08:42:14.499Z,8.60
2022-12-27T08:44:42.754Z,5.60
2022-12-27T08:47:10.879Z,10.10
2022-12-27T08:49:38.960Z,9.10
2022-12-27T08:52:07.210Z,9.30
2022-12-27T08:54:35.424Z,9.10
2022-12-27T08:57:03.929Z,7.50
2022-12-27T08:59:32.165Z,5.50
2022-12-27T09:02:00.573Z,9.80
2022-12-27T09:04:28.866Z,5.90
2022-12-27T09:06:57.221Z,3.70
2022-12-27T09:09:25.680Z,7.40
2022-12-27T09:11:53.887Z,10.30
2022-12-27T09:14:23.288Z,10.40
2022-12-27T09:16:51.582Z,7.90
2022-12-27T09:19:19.816Z,8.60
2022-12-27T09:21:48.633Z,7.40
2022-12-27T09:24:16.852Z,5.70
2022-12-27T09:26:45.257Z,4.20
2022-12-27T09:29:13.657Z,6.60
2022-12-27T09:31:41.867Z,11.40
2022-12-27T09:34:11.373Z,4.90
2022-12-27T09:36:40.548Z,7.10
2022-12-27T09:39:12.319Z,13.00
2022-12-27T09:44:51.104Z,9.40
2022-12-27T09:47:34.812Z,9.00
2022-12-27T09:50:14.014Z,8.40
2022-12-27T09:52:55.223Z,4.80
2022-12-27T09:55:40.893Z,7.30
2022-12-27T09:58:34.817Z,5.30
2022-12-27T10:01:07.321Z,10.20
2022-12-27T10:03:37.899Z,8.50
2022-12-27T10:06:36.609Z,8.80
2022-12-27T10:09:45.310Z,7.90
2022-12-27T10:12:32.363Z,9.50
2022-12-27T10:15:22.251Z,5.80
2022-12-27T10:18:09.575Z,10.80
2022-12-27T10:21:05.903Z,10.30
2022-12-27T10:23:46.214Z,5.80
2022-12-27T10:26:18.122Z,10.80
2022-12-27T10:28:53.124Z,5.20
2022-12-27T10:31:27.209Z,8.80
2022-12-27T10:33:55.512Z,13.90
2022-12-27T10:36:29.828Z,9.70
2022-12-27T10:38:58.312Z,10.30
2022-12-27T10:42:02.519Z,7.30
2022-12-27T10:44:30.827Z,6.70
2022-12-27T10:46:59.922Z,7.40
2022-12-27T10:49:33.865Z,9.20
2022-12-27T10:52:21.646Z,8.20
2022-12-27T10:54:51.547Z,9.90
2022-12-27T10:57:30.311Z,7.20
2022-12-27T11:00:19.283Z,11.40
2022-12-27T11:02:58.486Z,6.70
2022-12-27T11:05:32.721Z,6.40
2022-12-27T11:08:19.614Z,4.80
2022-12-27T11:10:47.872Z,5.00
2022-12-27T11:13:19.549Z,4.60
2022-12-27T11:15:58.667Z,4.60
2022-12-27T11:18:27.389Z,5.20
2022-12-27T11:20:58.456Z,10.90
2022-12-27T11:23:36.405Z,9.00
2022-12-27T11:26:07.923Z,6.80
2022-12-27T11:28:53.052Z,7.60
2022-12-27T11:31:42.693Z,6.00
2022-12-27T11:34:24.904Z,10.90
2022-12-27T11:36:56.056Z,7.00
2022-12-27T11:39:46.132Z,7.90
2022-12-27T11:42:23.653Z,10.30
2022-12-27T11:45:13.011Z,6.60
2022-12-27T11:47:49.839Z,8.10
2022-12-27T11:50:27.517Z,6.00
2022-12-27T11:53:08.011Z,7.10
2022-12-27T11:55:51.373Z,11.20
2022-12-27T11:58:50.817Z,6.50
2022-12-27T12:01:58.339Z,5.30
2022-12-27T12:04:26.615Z,7.40
2022-12-27T12:07:41.065Z,6.40
2022-12-27T12:10:31.054Z,4.60
2022-12-27T12:13:08.428Z,7.20
2022-12-27T12:16:14.808Z,4.40
2022-12-27T12:19:11.928Z,4.60
2022-12-27T12:21:39.960Z,6.70
2022-12-27T12:24:30.034Z,5.00
2022-12-27T12:27:15.568Z,9.60
2022-12-27T12:29:58.882Z,11.30
2022-12-27T12:33:04.452Z,4.20
2022-12-27T12:35:54.285Z,3.70
2022-12-27T12:38:23.895Z,5.60
2022-12-27T12:41:04.274Z,6.00
2022-12-27T12:44:06.772Z,7.70
2022-12-27T12:47:16.751Z,6.20
2022-12-27T12:49:53.888Z,7.80
2022-12-27T12:52:43.593Z,5.40
2022-12-27T12:55:23.222Z,9.30
2022-12-27T12:58:09.376Z,6.40
2022-12-27T13:00:40.309Z,5.10
2022-12-27T13:03:27.132Z,5.50
2022-12-27T13:06:17.288Z,8.30
2022-12-27T13:08:53.004Z,5.20
2022-12-27T13:11:56.742Z,7.50
2022-12-27T13:14:43.853Z,6.90
2022-12-27T13:17:24.657Z,9.50
2022-12-27T13:20:01.575Z,5.30
2022-12-27T13:22:44.156Z,7.00
2022-12-27T13:25:40.713Z,7.20
2022-12-27T13:28:47.588Z,4.90
2022-12-27T13:31:33.644Z,8.20
2022-12-27T13:34:22.950Z,8.20
2022-12-27T13:37:12.755Z,6.20
2022-12-27T13:40:00.782Z,7.20
2022-12-27T13:43:17.208Z,6.10
2022-12-27T13:45:52.430Z,7.20
2022-12-27T13:48:45.204Z,9.50
2022-12-27T13:51:25.767Z,7.00
2022-12-27T13:54:34.746Z,6.60
2022-12-27T13:57:05.692Z,11.00
2022-12-27T13:59:49.192Z,5.30
2022-12-27T14:02:50.868Z,6.40
2022-12-27T14:05:37.349Z,9.30
2022-12-27T14:08:20.934Z,11.40
2022-12-27T14:10:55.281Z,9.10
2022-12-27T14:13:32.611Z,8.90
2022-12-27T14:16:23.006Z,8.60
2022-12-27T14:18:57.416Z,5.30
2022-12-27T14:21:44.688Z,5.30
2022-12-27T14:24:38.069Z,8.70
2022-12-27T14:27:35.760Z,7.10
2022-12-27T14:30:46.994Z,5.90
2022-12-27T14:33:40.725Z,6.70
2022-12-27T14:36:28.194Z,11.60
2022-12-27T14:39:13.435Z,5.90
2022-12-27T14:42:09.523Z,11.70
2022-12-27T14:45:14.770Z,9.80
2022-12-27T14:47:48.906Z,14.90
2022-12-27T14:51:01.880Z,12.00
2022-12-27T14:53:35.565Z,13.90
2022-12-27T14:56:15.712Z,21.20
2022-12-27T14:58:52.812Z,8.40
2022-12-27T15:01:38.320Z,13.60
2022-12-27T15:04:28.367Z,7.00
2022-12-27T15:07:15.344Z,9.40
2022-12-27T15:10:08.852Z,14.90
2022-12-27T15:12:59.827Z,9.40
2022-12-27T15:15:42.865Z,4.70
2022-12-27T15:18:45.662Z,7.10
2022-12-27T15:21:52.577Z,5.90
2022-12-27T15:24:26.633Z,6.90
2022-12-27T15:27:06.953Z,7.70
2022-12-27T15:30:07.569Z,8.70
2022-12-27T15:33:08.471Z,13.00
2022-12-27T15:36:03.164Z,7.40
2022-12-27T15:38:41.372Z,8.60
2022-12-27T15:41:09.620Z,7.20
2022-12-27T15:44:05.602Z,6.30
2022-12-27T15:46:58.741Z,5.20
2022-12-27T15:49:51.996Z,5.90
2022-12-27T15:52:29.957Z,6.20
2022-12-27T15:55:04.145Z,8.50
2022-12-27T15:58:05.955Z,8.60
2022-12-27T16:00:34.801Z,7.00
2022-12-27T16:03:24.615Z,8.10
2022-12-27T16:05:54.818Z,9.80
2022-12-27T16:08:33.262Z,9.00
2022-12-27T16:11:08.502Z,4.70
2022-12-27T16:13:44.179Z,10.10
2022-12-27T16:16:38.928Z,9.10
2022-12-27T16:19:54.655Z,17.90
2022-12-27T16:22:53.885Z,12.40
2022-12-27T16:25:30.346Z,9.00
2022-12-27T16:28:24.994Z,15.80
2022-12-27T16:30:55.713Z,10.90
2022-12-27T16:33:27.950Z,11.90
2022-12-27T16:36:25.580Z,10.60
2022-12-27T16:39:11.828Z,8.50
2022-12-27T16:41:55.297Z,9.10
2022-12-27T16:44:26.501Z,12.00
2022-12-27T16:46:57.712Z,11.00
2022-12-27T16:50:00.083Z,10.30
2022-12-27T16:52:47.641Z,12.70
2022-12-27T16:55:30.889Z,10.90
2022-12-27T16:58:20.518Z,11.50
2022-12-27T17:00:51.744Z,13.90
2022-12-27T17:03:22.504Z,12.80
2022-12-27T17:06:30.168Z,10.70
2022-12-27T17:08:41.627Z,12.10
2022-12-27T17:11:29.972Z,10.00
2022-12-27T17:14:09.332Z,10.20
2022-12-27T17:16:43.175Z,13.70
2022-12-27T17:19:47.311Z,15.30
2022-12-27T17:22:17.497Z,10.70
2022-12-27T17:24:48.965Z,11.10
2022-12-27T17:27:39.594Z,11.20
2022-12-27T17:30:29.652Z,11.70
2022-12-27T17:33:43.505Z,16.20
2022-12-27T17:36:40.222Z,12.70
2022-12-27T17:39:41.076Z,11.40
2022-12-27T17:42:38.859Z,18.90
2022-12-27T17:45:09.973Z,14.50
2022-12-27T17:48:02.849Z,13.50
2022-12-27T17:50:32.169Z,15.20
2022-12-27T17:53:28.054Z,16.20
2022-12-27T17:56:21.704Z,17.00
2022-12-27T17:58:52.699Z,12.90
2022-12-27T18:01:29.495Z,11.80
2022-12-27T18:03:58.261Z,15.00
2022-12-27T18:06:26.490Z,15.20
2022-12-27T18:08:55.797Z,15.30
2022-12-27T18:11:28.009Z,17.20
2022-12-27T18:13:59.072Z,12.70
2022-12-27T18:16:37.442Z,16.70
2022-12-27T18:19:06.073Z,11.70
2022-12-27T18:21:34.201Z,16.00
2022-12-27T18:24:02.471Z,19.30
2022-12-27T18:26:38.699Z,19.10
2022-12-27T18:29:12.926Z,19.30
2022-12-27T18:31:49.854Z,15.90
2022-12-27T18:34:37.512Z,19.20
2022-12-27T18:37:15.515Z,13.50
2022-12-27T18:40:01.856Z,18.00
2022-12-27T18:42:36.597Z,19.10
2022-12-27T18:45:08.606Z,21.20
2022-12-27T18:47:44.829Z,20.20
2022-12-27T18:50:19.100Z,19.90
2022-12-27T18:52:53.062Z,15.80
2022-12-27T18:55:27.529Z,19.60
2022-12-27T18:58:19.942Z,12.00
2022-12-27T19:00:59.155Z,17.50
2022-12-27T19:03:28.230Z,19.20
2022-12-27T19:06:06.021Z,11.60
2022-12-27T19:08:38.822Z,19.80
2022-12-27T19:11:08.088Z,14.40
2022-12-27T19:13:42.141Z,12.80
2022-12-27T19:16:22.227Z,13.60
2022-12-27T19:18:53.737Z,18.30
2022-12-27T19:21:38.274Z,14.50
2022-12-27T19:24:19.992Z,19.30
2022-12-27T19:26:48.563Z,12.60
2022-12-27T19:29:19.574Z,10.00
2022-12-27T19:32:02.381Z,13.00
2022-12-27T19:34:44.052Z,16.20
2022-12-27T19:37:12.801Z,12.40
2022-12-27T19:39:41.755Z,8.70
2022-12-27T19:42:17.123Z,9.50
2022-12-27T19:44:45.462Z,11.60
2022-12-27T19:47:14.341Z,16.00
2022-12-27T19:49:44.085Z,11.20
2022-12-27T19:52:19.511Z,14.00
2022-12-27T19:54:48.851Z,16.10
2022-12-27T19:57:17.424Z,11.20
2022-12-27T19:59:45.687Z,14.70
2022-12-27T20:02:14.220Z,9.70
2022-12-27T20:04:42.714Z,11.80
2022-12-27T20:07:20.327Z,10.80
2022-12-27T20:09:48.468Z,13.50
2022-12-27T20:12:17.757Z,11.70
2022-12-27T20:14:47.653Z,17.90
2022-12-27T20:17:15.889Z,13.60
2022-12-27T20:19:44.015Z,14.00
2022-12-27T20:22:12.556Z,10.80
2022-12-27T20:24:40.622Z,17.20
2022-12-27T20:27:08.976Z,13.90
2022-12-27T20:29:37.332Z,12.00
2022-12-27T20:32:05.885Z,14.40
2022-12-27T20:34:34.547Z,18.30
2022-12-27T20:37:02.915Z,16.20
2022-12-27T20:39:31.147Z,11.00
2022-12-27T20:41:59.353Z,11.40
2022-12-27T20:44:27.961Z,13.90
2022-12-27T20:46:56.425Z,13.20
2022-12-27T20:49:24.645Z,16.90
2022-12-27T20:52:00.267Z,19.90
2022-12-27T20:54:28.721Z,20.50
2022-12-27T20:56:57.385Z,14.50
2022-12-27T20:59:25.555Z,18.80
2022-12-27T21:01:57.280Z,14.30
2022-12-27T21:04:27.018Z,12.40
2022-12-27T21:06:55.332Z,19.60
2022-12-27T21:09:23.931Z,13.60
2022-12-27T21:11:55.800Z,15.40
2022-12-27T21:14:23.906Z,13.80
2022-12-27T21:16:52.117Z,14.40
2022-12-27T21:19:20.314Z,14.70
2022-12-27T21:21:48.443Z,19.90
2022-12-27T21:24:16.781Z,16.10
2022-12-27T21:26:44.974Z,14.10
2022-12-27T21:29:14.610Z,11.00
2022-12-27T21:31:43.111Z,16.30
2022-12-27T21:34:12.184Z,15.50
2022-12-27T21:36:40.453Z,13.90
2022-12-27T21:39:08.951Z,14.10
2022-12-27T21:41:39.750Z,19.80
2022-12-27T21:44:08.032Z,18.90
2022-12-27T21:46:42.173Z,12.00
2022-12-27T21:49:14.197Z,13.60
2022-12-27T21:51:45.523Z,17.20
2022-12-27T21:54:14.123Z,15.90
2022-12-27T21:56:43.049Z,15.30
2022-12-27T21:59:12.208Z,17.40
2022-12-27T22:01:51.283Z,13.80
2022-12-27T22:04:21.790Z,17.30
2022-12-27T22:06:50.245Z,9.80
2022-12-27T22:09:19.572Z,18.70
2022-12-27T22:11:48.573Z,10.80
2022-12-27T22:14:21.831Z,12.40
2022-12-27T22:16:53.440Z,13.60
2022-12-27T22:19:21.723Z,13.70
2022-12-27T22:21:50.043Z,14.80
2022-12-27T22:24:19.995Z,16.20
2022-12-27T22:26:50.411Z,15.70
2022-12-27T22:29:18.859Z,15.70
2022-12-27T22:31:47.737Z,16.00
2022-12-27T22:34:16.164Z,18.30
2022-12-27T22:36:44.263Z,12.40
2022-12-27T22:39:12.413Z,13.70
2022-12-27T22:41:41.255Z,14.70
2022-12-27T22:44:15.070Z,13.90
2022-12-27T22:47:25.170Z,11.70
2022-12-27T22:49:31.859Z,17.20
2022-12-27T22:52:00.052Z,18.70
2022-12-27T22:55:04.100Z,13.50
2022-12-27T22:57:16.185Z,10.70
2022-12-27T22:59:44.593Z,17.40
2022-12-27T23:02:13.989Z,15.00
2022-12-27T23:04:42.395Z,23.10
2022-12-27T23:07:10.450Z,15.60
2022-12-27T23:09:43.196Z,13.20
2022-12-27T23:12:13.102Z,19.10
2022-12-27T23:14:41.387Z,13.30
2022-12-27T23:17:10.090Z,15.90
2022-12-27T23:19:38.407Z,15.40
2022-12-27T23:22:07.263Z,16.50
2022-12-27T23:24:35.385Z,15.00
2022-12-27T23:27:03.528Z,16.20
2022-12-27T23:29:31.730Z,16.60
2022-12-27T23:32:00.239Z,14.30
2022-12-27T23:34:29.251Z,14.70
2022-12-27T23:36:58.750Z,17.50
2022-12-27T23:39:27.523Z,17.50
2022-12-27T23:41:56.193Z,15.90
2022-12-27T23:44:34.222Z,12.60
2022-12-27T23:47:05.522Z,16.70
2022-12-27T23:49:34.674Z,14.20
2022-12-27T23:52:03.396Z,14.60
2022-12-27T23:54:31.549Z,15.30
2022-12-27T23:57:19.930Z,12.90
2022-12-27T23:59:49.585Z,14.20
